sensor_id;sensor_type;location;lat;lon;timestamp;P1;durP1;ratioP1;P2;durP2;ratioP2
73382;SDS011;61600;48.126;11.542;2023-01-15T00:00:50;2.05;;;0.88;;
73382;SDS011;61600;48.126;11.542;2023-01-15T00:03:17;1.05;;;0.57;;
73382;SDS011;61600;48.126;11.542;2023-01-15T00:05:43;2.45;;;0.82;;
73382;SDS011;61600;48.126;11.542;2023-01-15T00:08:08;1.90;;;0.90;;
73382;SDS011;61600;48.126;11.542;2023-01-15T00:10:34;2.13;;;0.88;;
73382;SDS011;61600;48.126;11.542;2023-01-15T00:13:00;2.65;;;0.90;;
73382;SDS011;61600;48.126;11.542;2023-01-15T00:15:29;2.53;;;1.00;;
73382;SDS011;61600;48.126;11.542;2023-01-15T00:17:55;3.40;;;0.77;;
73382;SDS011;61600;48.126;11.542;2023-01-15T00:20:21;2.03;;;0.80;;
73382;SDS011;61600;48.126;11.542;2023-01-15T00:22:47;2.08;;;0.80;;
73382;SDS011;61600;48.126;11.542;2023-01-15T00:25:13;1.80;;;0.80;;
73382;SDS011;61600;48.126;11.542;2023-01-15T00:27:57;1.55;;;0.60;;
73382;SDS011;61600;48.126;11.542;2023-01-15T00:30:24;1.48;;;0.80;;
73382;SDS011;61600;48.126;11.542;2023-01-15T00:32:49;3.10;;;0.80;;
73382;SDS011;61600;48.126;11.542;2023-01-15T00:35:16;0.70;;;0.50;;
73382;SDS011;61600;48.126;11.542;2023-01-15T00:37:48;1.70;;;0.70;;
73382;SDS011;61600;48.126;11.542;2023-01-15T00:40:14;1.17;;;0.50;;
73382;SDS011;61600;48.126;11.542;2023-01-15T00:42:41;1.92;;;0.60;;
73382;SDS011;61600;48.126;11.542;2023-01-15T00:45:08;1.08;;;0.70;;
73382;SDS011;61600;48.126;11.542;2023-01-15T00:47:39;2.42;;;0.90;;
73382;SDS011;61600;48.126;11.542;2023-01-15T00:50:08;2.13;;;0.57;;
73382;SDS011;61600;48.126;11.542;2023-01-15T00:52:35;1.92;;;0.70;;
73382;SDS011;61600;48.126;11.542;2023-01-15T00:55:02;1.00;;;0.43;;
73382;SDS011;61600;48.126;11.542;2023-01-15T00:57:30;1.05;;;0.50;;
73382;SDS011;61600;48.126;11.542;2023-01-15T00:59:56;1.05;;;0.60;;
73382;SDS011;61600;48.126;11.542;2023-01-15T01:02:22;1.88;;;0.68;;
73382;SDS011;61600;48.126;11.542;2023-01-15T01:04:47;1.95;;;0.77;;
73382;SDS011;61600;48.126;11.542;2023-01-15T01:07:16;2.08;;;0.65;;
73382;SDS011;61600;48.126;11.542;2023-01-15T01:09:42;1.83;;;0.50;;
73382;SDS011;61600;48.126;11.542;2023-01-15T01:12:09;1.55;;;0.80;;
73382;SDS011;61600;48.126;11.542;2023-01-15T01:14:35;3.17;;;0.73;;
73382;SDS011;61600;48.126;11.542;2023-01-15T01:17:01;0.98;;;0.60;;
73382;SDS011;61600;48.126;11.542;2023-01-15T01:19:27;1.13;;;0.50;;
73382;SDS011;61600;48.126;11.542;2023-01-15T01:21:55;1.50;;;0.63;;
73382;SDS011;61600;48.126;11.542;2023-01-15T01:24:22;2.10;;;0.73;;
73382;SDS011;61600;48.126;11.542;2023-01-15T01:26:50;1.63;;;0.80;;
73382;SDS011;61600;48.126;11.542;2023-01-15T01:29:20;1.50;;;0.60;;
73382;SDS011;61600;48.126;11.542;2023-01-15T01:31:47;1.58;;;0.70;;
73382;SDS011;61600;48.126;11.542;2023-01-15T01:34:13;1.05;;;0.50;;
73382;SDS011;61600;48.126;11.542;2023-01-15T01:36:40;1.90;;;0.60;;
73382;SDS011;61600;48.126;11.542;2023-01-15T01:39:08;1.70;;;0.52;;
73382;SDS011;61600;48.126;11.542;2023-01-15T01:41:38;0.98;;;0.40;;
73382;SDS011;61600;48.126;11.542;2023-01-15T01:44:05;0.52;;;0.50;;
73382;SDS011;61600;48.126;11.542;2023-01-15T01:46:35;1.15;;;0.60;;
73382;SDS011;61600;48.126;11.542;2023-01-15T01:49:02;2.22;;;0.50;;
73382;SDS011;61600;48.126;11.542;2023-01-15T01:51:38;1.30;;;0.57;;
73382;SDS011;61600;48.126;11.542;2023-01-15T01:54:07;0.73;;;0.50;;
73382;SDS011;61600;48.126;11.542;2023-01-15T01:56:35;1.08;;;0.40;;
73382;SDS011;61600;48.126;11.542;2023-01-15T01:59:01;1.67;;;0.63;;
73382;SDS011;61600;48.126;11.542;2023-01-15T02:01:30;1.58;;;0.55;;
73382;SDS011;61600;48.126;11.542;2023-01-15T02:03:56;1.10;;;0.40;;
73382;SDS011;61600;48.126;11.542;2023-01-15T02:06:22;2.38;;;0.52;;
73382;SDS011;61600;48.126;11.542;2023-01-15T02:08:50;1.23;;;0.52;;
73382;SDS011;61600;48.126;11.542;2023-01-15T02:11:17;1.50;;;0.55;;
73382;SDS011;61600;48.126;11.542;2023-01-15T02:16:23;1.33;;;0.45;;
73382;SDS011;61600;48.126;11.542;2023-01-15T02:35:14;1.23;;;0.50;;
73382;SDS011;61600;48.126;11.542;2023-01-15T02:40:16;3.60;;;0.55;;
73382;SDS011;61600;48.126;11.542;2023-01-15T02:42:45;1.10;;;0.57;;
73382;SDS011;61600;48.126;11.542;2023-01-15T02:45:14;1.77;;;0.60;;
73382;SDS011;61600;48.126;11.542;2023-01-15T02:47:48;0.73;;;0.35;;
73382;SDS011;61600;48.126;11.542;2023-01-15T02:50:17;0.73;;;0.50;;
73382;SDS011;61600;48.126;11.542;2023-01-15T02:52:48;0.68;;;0.35;;
73382;SDS011;61600;48.126;11.542;2023-01-15T02:55:26;1.05;;;0.50;;
73382;SDS011;61600;48.126;11.542;2023-01-15T02:57:57;0.93;;;0.40;;
73382;SDS011;61600;48.126;11.542;2023-01-15T03:00:28;1.08;;;0.40;;
73382;SDS011;61600;48.126;11.542;2023-01-15T03:02:59;1.02;;;0.45;;
73382;SDS011;61600;48.126;11.542;2023-01-15T03:05:39;1.55;;;0.68;;
73382;SDS011;61600;48.126;11.542;2023-01-15T03:08:24;1.33;;;0.65;;
73382;SDS011;61600;48.126;11.542;2023-01-15T03:16:33;0.88;;;0.68;;
73382;SDS011;61600;48.126;11.542;2023-01-15T03:19:06;0.90;;;0.50;;
73382;SDS011;61600;48.126;11.542;2023-01-15T03:26:55;0.45;;;0.40;;
73382;SDS011;61600;48.126;11.542;2023-01-15T03:29:21;0.32;;;0.32;;
73382;SDS011;61600;48.126;11.542;2023-01-15T03:31:50;2.97;;;0.60;;
73382;SDS011;61600;48.126;11.542;2023-01-15T03:34:16;1.10;;;0.50;;
73382;SDS011;61600;48.126;11.542;2023-01-15T03:36:42;0.68;;;0.47;;
73382;SDS011;61600;48.126;11.542;2023-01-15T03:39:08;0.93;;;0.47;;
73382;SDS011;61600;48.126;11.542;2023-01-15T03:44:38;0.90;;;0.38;;
73382;SDS011;61600;48.126;11.542;2023-01-15T03:49:43;1.45;;;0.63;;
73382;SDS011;61600;48.126;11.542;2023-01-15T03:52:23;1.05;;;0.60;;
73382;SDS011;61600;48.126;11.542;2023-01-15T03:55:21;3.35;;;0.55;;
73382;SDS011;61600;48.126;11.542;2023-01-15T04:03:22;1.27;;;0.55;;
73382;SDS011;61600;48.126;11.542;2023-01-15T04:05:50;0.75;;;0.50;;
73382;SDS011;61600;48.126;11.542;2023-01-15T04:08:18;1.88;;;0.40;;
73382;SDS011;61600;48.126;11.542;2023-01-15T04:10:55;2.17;;;0.70;;
73382;SDS011;61600;48.126;11.542;2023-01-15T04:13:25;1.02;;;0.50;;
73382;SDS011;61600;48.126;11.542;2023-01-15T04:15:52;0.93;;;0.60;;
73382;SDS011;61600;48.126;11.542;2023-01-15T04:18:18;1.00;;;0.52;;
73382;SDS011;61600;48.126;11.542;2023-01-15T04:20:45;1.42;;;0.47;;
73382;SDS011;61600;48.126;11.542;2023-01-15T04:23:10;1.13;;;0.52;;
73382;SDS011;61600;48.126;11.542;2023-01-15T04:25:36;1.15;;;0.50;;
73382;SDS011;61600;48.126;11.542;2023-01-15T04:28:02;1.83;;;0.70;;
73382;SDS011;61600;48.126;11.542;2023-01-15T04:30:28;0.57;;;0.43;;
73382;SDS011;61600;48.126;11.542;2023-01-15T04:32:54;1.58;;;0.40;;
73382;SDS011;61600;48.126;11.542;2023-01-15T04:35:20;0.45;;;0.30;;
73382;SDS011;61600;48.126;11.542;2023-01-15T04:37:46;1.08;;;0.50;;
73382;SDS011;61600;48.126;11.542;2023-01-15T04:40:12;1.55;;;0.40;;
73382;SDS011;61600;48.126;11.542;2023-01-15T04:42:57;0.88;;;0.40;;
73382;SDS011;61600;48.126;11.542;2023-01-15T04:45:44;0.88;;;0.40;;
73382;SDS011;61600;48.126;11.542;2023-01-15T04:48:10;1.33;;;0.40;;
73382;SDS011;61600;48.126;11.542;2023-01-15T04:50:39;0.95;;;0.35;;
73382;SDS011;61600;48.126;11.542;2023-01-15T04:53:05;0.98;;;0.47;;
73382;SDS011;61600;48.126;11.542;2023-01-15T04:55:31;1.55;;;0.88;;
73382;SDS011;61600;48.126;11.542;2023-01-15T04:57:57;2.10;;;0.60;;
73382;SDS011;61600;48.126;11.542;2023-01-15T05:00:22;0.70;;;0.43;;
73382;SDS011;61600;48.126;11.542;2023-01-15T05:02:48;1.15;;;0.50;;
73382;SDS011;61600;48.126;11.542;2023-01-15T05:05:14;0.90;;;0.45;;
73382;SDS011;61600;48.126;11.542;2023-01-15T05:07:40;0.95;;;0.60;;
73382;SDS011;61600;48.126;11.542;2023-01-15T05:10:06;0.85;;;0.35;;
73382;SDS011;61600;48.126;11.542;2023-01-15T05:12:32;0.60;;;0.40;;
73382;SDS011;61600;48.126;11.542;2023-01-15T05:14:58;0.90;;;0.40;;
73382;SDS011;61600;48.126;11.542;2023-01-15T05:17:24;2.22;;;0.93;;
73382;SDS011;61600;48.126;11.542;2023-01-15T05:19:49;1.98;;;0.60;;
73382;SDS011;61600;48.126;11.542;2023-01-15T05:22:15;1.92;;;0.70;;
73382;SDS011;61600;48.126;11.542;2023-01-15T05:24:41;2.00;;;0.70;;
73382;SDS011;61600;48.126;11.542;2023-01-15T05:27:07;1.10;;;0.50;;
73382;SDS011;61600;48.126;11.542;2023-01-15T05:29:32;1.63;;;0.60;;
73382;SDS011;61600;48.126;11.542;2023-01-15T05:31:58;1.38;;;0.57;;
73382;SDS011;61600;48.126;11.542;2023-01-15T05:34:24;0.98;;;0.50;;
73382;SDS011;61600;48.126;11.542;2023-01-15T05:36:50;1.42;;;0.40;;
73382;SDS011;61600;48.126;11.542;2023-01-15T05:39:15;0.90;;;0.55;;
73382;SDS011;61600;48.126;11.542;2023-01-15T05:41:41;1.63;;;0.32;;
73382;SDS011;61600;48.126;11.542;2023-01-15T05:44:26;1.88;;;0.30;;
73382;SDS011;61600;48.126;11.542;2023-01-15T05:46:55;1.13;;;0.52;;
73382;SDS011;61600;48.126;11.542;2023-01-15T05:49:23;0.43;;;0.30;;
73382;SDS011;61600;48.126;11.542;2023-01-15T05:51:50;0.70;;;0.20;;
73382;SDS011;61600;48.126;11.542;2023-01-15T05:54:19;0.55;;;0.20;;
73382;SDS011;61600;48.126;11.542;2023-01-15T05:56:46;0.15;;;0.15;;
73382;SDS011;61600;48.126;11.542;2023-01-15T05:59:14;1.55;;;0.38;;
73382;SDS011;61600;48.126;11.542;2023-01-15T06:01:41;0.25;;;0.10;;
73382;SDS011;61600;48.126;11.542;2023-01-15T06:04:07;0.45;;;0.20;;
73382;SDS011;61600;48.126;11.542;2023-01-15T06:06:35;0.60;;;0.17;;
73382;SDS011;61600;48.126;11.542;2023-01-15T06:09:01;0.10;;;0.10;;
73382;SDS011;61600;48.126;11.542;2023-01-15T06:11:28;0.50;;;0.20;;
73382;SDS011;61600;48.126;11.542;2023-01-15T06:13:54;0.10;;;0.10;;
73382;SDS011;61600;48.126;11.542;2023-01-15T06:16:20;0.00;;;0.00;;
73382;SDS011;61600;48.126;11.542;2023-01-15T06:18:46;0.28;;;0.22;;
73382;SDS011;61600;48.126;11.542;2023-01-15T06:21:12;0.10;;;0.10;;
73382;SDS011;61600;48.126;11.542;2023-01-15T06:23:39;0.52;;;0.20;;
73382;SDS011;61600;48.126;11.542;2023-01-15T06:26:07;0.65;;;0.10;;
73382;SDS011;61600;48.126;11.542;2023-01-15T06:28:40;0.75;;;0.40;;
73382;SDS011;61600;48.126;11.542;2023-01-15T06:31:07;0.28;;;0.08;;
73382;SDS011;61600;48.126;11.542;2023-01-15T06:33:34;0.50;;;0.20;;
73382;SDS011;61600;48.126;11.542;2023-01-15T06:36:07;0.30;;;0.20;;
73382;SDS011;61600;48.126;11.542;2023-01-15T06:38:35;0.20;;;0.17;;
73382;SDS011;61600;48.126;11.542;2023-01-15T06:41:02;0.00;;;0.00;;
73382;SDS011;61600;48.126;11.542;2023-01-15T06:43:49;1.63;;;0.30;;
73382;SDS011;61600;48.126;11.542;2023-01-15T06:46:34;0.38;;;0.10;;
73382;SDS011;61600;48.126;11.542;2023-01-15T06:49:18;2.42;;;0.28;;
73382;SDS011;61600;48.126;11.542;2023-01-15T06:51:44;0.73;;;0.10;;
73382;SDS011;61600;48.126;11.542;2023-01-15T06:54:10;0.00;;;0.00;;
73382;SDS011;61600;48.126;11.542;2023-01-15T06:56:35;0.30;;;0.10;;
73382;SDS011;61600;48.126;11.542;2023-01-15T06:59:01;0.43;;;0.10;;
73382;SDS011;61600;48.126;11.542;2023-01-15T07:01:27;0.20;;;0.08;;
73382;SDS011;61600;48.126;11.542;2023-01-15T07:03:55;0.20;;;0.15;;
73382;SDS011;61600;48.126;11.542;2023-01-15T07:06:21;0.10;;;0.10;;
73382;SDS011;61600;48.126;11.542;2023-01-15T07:08:47;0.10;;;0.10;;
73382;SDS011;61600;48.126;11.542;2023-01-15T07:11:12;0.30;;;0.20;;
73382;SDS011;61600;48.126;11.542;2023-01-15T07:13:38;0.20;;;0.10;;
73382;SDS011;61600;48.126;11.542;2023-01-15T07:16:04;0.10;;;0.10;;
73382;SDS011;61600;48.126;11.542;2023-01-15T07:18:30;0.17;;;0.17;;
73382;SDS011;61600;48.126;11.542;2023-01-15T07:20:58;0.40;;;0.20;;
73382;SDS011;61600;48.126;11.542;2023-01-15T07:23:24;0.63;;;0.20;;
73382;SDS011;61600;48.126;11.542;2023-01-15T07:25:52;0.13;;;0.10;;
73382;SDS011;61600;48.126;11.542;2023-01-15T07:28:19;0.10;;;0.03;;
73382;SDS011;61600;48.126;11.542;2023-01-15T07:30:49;0.10;;;0.10;;
73382;SDS011;61600;48.126;11.542;2023-01-15T07:33:14;0.32;;;0.10;;
73382;SDS011;61600;48.126;11.542;2023-01-15T07:35:40;0.35;;;0.10;;
73382;SDS011;61600;48.126;11.542;2023-01-15T07:38:06;0.30;;;0.10;;
73382;SDS011;61600;48.126;11.542;2023-01-15T07:40:35;1.05;;;0.17;;
73382;SDS011;61600;48.126;11.542;2023-01-15T07:43:01;0.55;;;0.20;;
73382;SDS011;61600;48.126;11.542;2023-01-15T07:45:45;0.35;;;0.20;;
73382;SDS011;61600;48.126;11.542;2023-01-15T07:48:29;0.40;;;0.20;;
73382;SDS011;61600;48.126;11.542;2023-01-15T07:51:13;0.25;;;0.20;;
73382;SDS011;61600;48.126;11.542;2023-01-15T07:53:39;1.17;;;0.10;;
73382;SDS011;61600;48.126;11.542;2023-01-15T07:56:05;0.43;;;0.10;;
73382;SDS011;61600;48.126;11.542;2023-01-15T07:58:34;0.88;;;0.10;;
73382;SDS011;61600;48.126;11.542;2023-01-15T08:01:00;0.30;;;0.10;;
73382;SDS011;61600;48.126;11.542;2023-01-15T08:03:26;0.63;;;0.30;;
73382;SDS011;61600;48.126;11.542;2023-01-15T08:05:51;1.27;;;0.50;;
73382;SDS011;61600;48.126;11.542;2023-01-15T08:08:20;0.20;;;0.10;;
73382;SDS011;61600;48.126;11.542;2023-01-15T08:10:46;0.93;;;0.32;;
73382;SDS011;61600;48.126;11.542;2023-01-15T08:13:30;2.25;;;0.40;;
73382;SDS011;61600;48.126;11.542;2023-01-15T08:16:14;0.20;;;0.00;;
73382;SDS011;61600;48.126;11.542;2023-01-15T08:18:43;0.65;;;0.28;;
73382;SDS011;61600;48.126;11.542;2023-01-15T08:21:14;0.28;;;0.20;;
73382;SDS011;61600;48.126;11.542;2023-01-15T08:23:40;0.28;;;0.13;;
73382;SDS011;61600;48.126;11.542;2023-01-15T08:26:07;0.13;;;0.10;;
73382;SDS011;61600;48.126;11.542;2023-01-15T08:28:36;0.73;;;0.10;;
73382;SDS011;61600;48.126;11.542;2023-01-15T08:31:03;0.55;;;0.28;;
73382;SDS011;61600;48.126;11.542;2023-01-15T08:33:30;1.10;;;0.30;;
73382;SDS011;61600;48.126;11.542;2023-01-15T08:35:57;0.52;;;0.22;;
73382;SDS011;61600;48.126;11.542;2023-01-15T08:38:22;0.35;;;0.20;;
73382;SDS011;61600;48.126;11.542;2023-01-15T08:40:51;0.40;;;0.10;;
73382;SDS011;61600;48.126;11.542;2023-01-15T08:43:24;0.38;;;0.13;;
73382;SDS011;61600;48.126;11.542;2023-01-15T08:45:51;0.20;;;0.20;;
73382;SDS011;61600;48.126;11.542;2023-01-15T08:48:17;0.43;;;0.10;;
73382;SDS011;61600;48.126;11.542;2023-01-15T08:50:43;0.10;;;0.10;;
73382;SDS011;61600;48.126;11.542;2023-01-15T08:53:09;1.10;;;0.17;;
73382;SDS011;61600;48.126;11.542;2023-01-15T08:55:36;0.28;;;0.10;;
73382;SDS011;61600;48.126;11.542;2023-01-15T08:58:05;0.80;;;0.20;;
73382;SDS011;61600;48.126;11.542;2023-01-15T09:00:30;0.85;;;0.15;;
73382;SDS011;61600;48.126;11.542;2023-01-15T09:02:56;0.03;;;0.03;;
73382;SDS011;61600;48.126;11.542;2023-01-15T09:05:25;0.47;;;0.28;;
73382;SDS011;61600;48.126;11.542;2023-01-15T09:10:21;0.05;;;0.05;;
73382;SDS011;61600;48.126;11.542;2023-01-15T09:12:47;0.25;;;0.13;;
73382;SDS011;61600;48.126;11.542;2023-01-15T09:15:13;0.30;;;0.15;;
73382;SDS011;61600;48.126;11.542;2023-01-15T09:17:42;0.50;;;0.10;;
73382;SDS011;61600;48.126;11.542;2023-01-15T09:20:09;2.25;;;0.20;;
73382;SDS011;61600;48.126;11.542;2023-01-15T09:22:37;0.73;;;0.20;;
73382;SDS011;61600;48.126;11.542;2023-01-15T09:25:03;0.30;;;0.25;;
73382;SDS011;61600;48.126;11.542;2023-01-15T09:27:29;0.30;;;0.15;;
73382;SDS011;61600;48.126;11.542;2023-01-15T09:29:55;1.55;;;0.30;;
73382;SDS011;61600;48.126;11.542;2023-01-15T09:32:21;0.88;;;0.30;;
73382;SDS011;61600;48.126;11.542;2023-01-15T09:34:47;0.30;;;0.10;;
73382;SDS011;61600;48.126;11.542;2023-01-15T09:37:13;1.30;;;0.30;;
73382;SDS011;61600;48.126;11.542;2023-01-15T09:39:38;0.70;;;0.20;;
73382;SDS011;61600;48.126;11.542;2023-01-15T09:45:00;0.40;;;0.17;;
73382;SDS011;61600;48.126;11.542;2023-01-15T09:47:52;0.82;;;0.30;;
73382;SDS011;61600;48.126;11.542;2023-01-15T09:53:16;0.55;;;0.30;;
73382;SDS011;61600;48.126;11.542;2023-01-15T09:55:50;1.60;;;0.30;;
73382;SDS011;61600;48.126;11.542;2023-01-15T09:58:25;0.55;;;0.20;;
73382;SDS011;61600;48.126;11.542;2023-01-15T10:00:58;0.57;;;0.22;;
73382;SDS011;61600;48.126;11.542;2023-01-15T10:03:27;0.45;;;0.30;;
73382;SDS011;61600;48.126;11.542;2023-01-15T10:08:44;0.20;;;0.20;;
73382;SDS011;61600;48.126;11.542;2023-01-15T10:11:19;4.90;;;0.30;;
73382;SDS011;61600;48.126;11.542;2023-01-15T10:14:11;0.30;;;0.30;;
73382;SDS011;61600;48.126;11.542;2023-01-15T10:16:43;1.30;;;0.40;;
73382;SDS011;61600;48.126;11.542;2023-01-15T10:19:09;0.10;;;0.10;;
73382;SDS011;61600;48.126;11.542;2023-01-15T10:21:44;0.10;;;0.10;;
73382;SDS011;61600;48.126;11.542;2023-01-15T10:26:57;0.03;;;0.03;;
73382;SDS011;61600;48.126;11.542;2023-01-15T10:35:15;0.00;;;0.00;;
73382;SDS011;61600;48.126;11.542;2023-01-15T10:37:58;0.13;;;0.10;;
73382;SDS011;61600;48.126;11.542;2023-01-15T10:40:45;0.17;;;0.15;;
73382;SDS011;61600;48.126;11.542;2023-01-15T10:43:21;3.35;;;0.10;;
73382;SDS011;61600;48.126;11.542;2023-01-15T10:46:09;0.52;;;0.10;;
73382;SDS011;61600;48.126;11.542;2023-01-15T10:51:21;0.28;;;0.00;;
73382;SDS011;61600;48.126;11.542;2023-01-15T10:53:53;0.10;;;0.10;;
73382;SDS011;61600;48.126;11.542;2023-01-15T10:56:34;0.22;;;0.17;;
73382;SDS011;61600;48.126;11.542;2023-01-15T10:59:19;0.45;;;0.10;;
73382;SDS011;61600;48.126;11.542;2023-01-15T11:01:50;0.15;;;0.10;;
73382;SDS011;61600;48.126;11.542;2023-01-15T11:04:18;0.00;;;0.00;;
73382;SDS011;61600;48.126;11.542;2023-01-15T11:06:44;0.15;;;0.10;;
73382;SDS011;61600;48.126;11.542;2023-01-15T11:09:20;0.20;;;0.10;;
73382;SDS011;61600;48.126;11.542;2023-01-15T11:12:03;0.40;;;0.20;;
73382;SDS011;61600;48.126;11.542;2023-01-15T11:14:43;0.43;;;0.10;;
73382;SDS011;61600;48.126;11.542;2023-01-15T11:17:34;0.75;;;0.30;;
73382;SDS011;61600;48.126;11.542;2023-01-15T11:23:05;0.35;;;0.20;;
73382;SDS011;61600;48.126;11.542;2023-01-15T11:25:32;1.60;;;0.10;;
73382;SDS011;61600;48.126;11.542;2023-01-15T11:27:59;0.65;;;0.30;;
73382;SDS011;61600;48.126;11.542;2023-01-15T11:30:30;1.65;;;0.20;;
73382;SDS011;61600;48.126;11.542;2023-01-15T11:32:58;0.10;;;0.10;;
73382;SDS011;61600;48.126;11.542;2023-01-15T11:35:30;0.10;;;0.10;;
73382;SDS011;61600;48.126;11.542;2023-01-15T11:38:01;0.43;;;0.13;;
73382;SDS011;61600;48.126;11.542;2023-01-15T11:40:34;0.15;;;0.10;;
73382;SDS011;61600;48.126;11.542;2023-01-15T11:43:00;0.98;;;0.08;;
73382;SDS011;61600;48.126;11.542;2023-01-15T11:45:45;0.35;;;0.10;;
73382;SDS011;61600;48.126;11.542;2023-01-15T11:48:33;0.82;;;0.38;;
73382;SDS011;61600;48.126;11.542;2023-01-15T11:51:26;0.57;;;0.30;;
73382;SDS011;61600;48.126;11.542;2023-01-15T11:53:53;0.65;;;0.32;;
73382;SDS011;61600;48.126;11.542;2023-01-15T11:56:25;0.28;;;0.28;;
73382;SDS011;61600;48.126;11.542;2023-01-15T11:58:57;0.13;;;0.10;;
73382;SDS011;61600;48.126;11.542;2023-01-15T12:01:28;0.30;;;0.20;;
73382;SDS011;61600;48.126;11.542;2023-01-15T12:04:18;0.55;;;0.30;;
73382;SDS011;61600;48.126;11.542;2023-01-15T12:06:53;0.45;;;0.30;;
73382;SDS011;61600;48.126;11.542;2023-01-15T12:09:25;0.10;;;0.10;;
73382;SDS011;61600;48.126;11.542;2023-01-15T12:12:14;1.13;;;0.35;;
73382;SDS011;61600;48.126;11.542;2023-01-15T12:39:01;0.75;;;0.38;;
73382;SDS011;61600;48.126;11.542;2023-01-15T12:41:35;1.42;;;0.30;;
73382;SDS011;61600;48.126;11.542;2023-01-15T12:47:30;0.38;;;0.32;;
73382;SDS011;61600;48.126;11.542;2023-01-15T12:50:12;1.45;;;0.40;;
73382;SDS011;61600;48.126;11.542;2023-01-15T12:52:47;1.02;;;0.47;;
73382;SDS011;61600;48.126;11.542;2023-01-15T12:55:21;1.95;;;0.68;;
73382;SDS011;61600;48.126;11.542;2023-01-15T12:57:55;1.30;;;0.50;;
73382;SDS011;61600;48.126;11.542;2023-01-15T13:00:27;0.52;;;0.38;;
73382;SDS011;61600;48.126;11.542;2023-01-15T13:06:09;1.75;;;0.50;;
73382;SDS011;61600;48.126;11.542;2023-01-15T13:08:40;0.52;;;0.38;;
73382;SDS011;61600;48.126;11.542;2023-01-15T13:11:12;1.65;;;0.50;;
73382;SDS011;61600;48.126;11.542;2023-01-15T13:13:39;1.52;;;0.45;;
73382;SDS011;61600;48.126;11.542;2023-01-15T13:16:15;0.95;;;0.52;;
73382;SDS011;61600;48.126;11.542;2023-01-15T13:21:30;1.10;;;0.50;;
73382;SDS011;61600;48.126;11.542;2023-01-15T13:27:23;0.47;;;0.32;;
73382;SDS011;61600;48.126;11.542;2023-01-15T13:32:46;0.05;;;0.05;;
73382;SDS011;61600;48.126;11.542;2023-01-15T13:35:22;0.30;;;0.20;;
73382;SDS011;61600;48.126;11.542;2023-01-15T13:37:53;0.63;;;0.03;;
73382;SDS011;61600;48.126;11.542;2023-01-15T13:40:29;0.90;;;0.20;;
73382;SDS011;61600;48.126;11.542;2023-01-15T13:42:59;0.20;;;0.20;;
73382;SDS011;61600;48.126;11.542;2023-01-15T13:47:56;0.43;;;0.10;;
73382;SDS011;61600;48.126;11.542;2023-01-15T13:55:37;0.55;;;0.30;;
73382;SDS011;61600;48.126;11.542;2023-01-15T13:58:20;0.22;;;0.20;;
73382;SDS011;61600;48.126;11.542;2023-01-15T14:00:59;0.10;;;0.10;;
73382;SDS011;61600;48.126;11.542;2023-01-15T14:03:36;0.20;;;0.10;;
73382;SDS011;61600;48.126;11.542;2023-01-15T14:06:03;0.15;;;0.10;;
73382;SDS011;61600;48.126;11.542;2023-01-15T14:08:50;0.13;;;0.10;;
73382;SDS011;61600;48.126;11.542;2023-01-15T14:14:07;0.08;;;0.08;;
73382;SDS011;61600;48.126;11.542;2023-01-15T14:32:51;0.22;;;0.17;;
73382;SDS011;61600;48.126;11.542;2023-01-15T14:35:42;3.10;;;0.20;;
73382;SDS011;61600;48.126;11.542;2023-01-15T14:38:18;0.50;;;0.28;;
73382;SDS011;61600;48.126;11.542;2023-01-15T14:43:31;0.17;;;0.10;;
73382;SDS011;61600;48.126;11.542;2023-01-15T14:48:58;1.98;;;0.45;;
73382;SDS011;61600;48.126;11.542;2023-01-15T14:51:26;0.52;;;0.20;;
73382;SDS011;61600;48.126;11.542;2023-01-15T14:54:01;0.63;;;0.20;;
73382;SDS011;61600;48.126;11.542;2023-01-15T14:56:43;0.52;;;0.20;;
73382;SDS011;61600;48.126;11.542;2023-01-15T14:59:18;3.35;;;0.50;;
73382;SDS011;61600;48.126;11.542;2023-01-15T15:01:50;0.55;;;0.22;;
73382;SDS011;61600;48.126;11.542;2023-01-15T15:06:49;0.38;;;0.20;;
73382;SDS011;61600;48.126;11.542;2023-01-15T15:09:24;0.90;;;0.40;;
73382;SDS011;61600;48.126;11.542;2023-01-15T15:12:06;0.75;;;0.20;;
73382;SDS011;61600;48.126;11.542;2023-01-15T15:14:49;2.80;;;1.15;;
73382;SDS011;61600;48.126;11.542;2023-01-15T15:17:29;0.55;;;0.40;;
73382;SDS011;61600;48.126;11.542;2023-01-15T15:20:06;0.63;;;0.30;;
73382;SDS011;61600;48.126;11.542;2023-01-15T15:22:44;0.38;;;0.20;;
73382;SDS011;61600;48.126;11.542;2023-01-15T15:25:16;0.60;;;0.30;;
73382;SDS011;61600;48.126;11.542;2023-01-15T15:27:46;0.28;;;0.20;;
73382;SDS011;61600;48.126;11.542;2023-01-15T15:30:12;2.17;;;0.57;;
73382;SDS011;61600;48.126;11.542;2023-01-15T15:32:41;1.30;;;0.60;;
73382;SDS011;61600;48.126;11.542;2023-01-15T15:35:25;1.92;;;0.82;;
73382;SDS011;61600;48.126;11.542;2023-01-15T15:37:53;1.50;;;0.65;;
73382;SDS011;61600;48.126;11.542;2023-01-15T15:40:20;1.65;;;0.47;;
73382;SDS011;61600;48.126;11.542;2023-01-15T15:43:02;1.58;;;0.70;;
73382;SDS011;61600;48.126;11.542;2023-01-15T15:45:55;2.08;;;0.73;;
73382;SDS011;61600;48.126;11.542;2023-01-15T15:48:40;1.20;;;0.52;;
73382;SDS011;61600;48.126;11.542;2023-01-15T15:54:13;1.38;;;0.75;;
73382;SDS011;61600;48.126;11.542;2023-01-15T15:57:13;2.00;;;0.80;;
73382;SDS011;61600;48.126;11.542;2023-01-15T15:59:43;2.63;;;0.73;;
73382;SDS011;61600;48.126;11.542;2023-01-15T16:05:32;1.55;;;0.47;;
73382;SDS011;61600;48.126;11.542;2023-01-15T16:07:46;5.00;;;0.70;;
73382;SDS011;61600;48.126;11.542;2023-01-15T16:12:52;1.70;;;0.68;;
73382;SDS011;61600;48.126;11.542;2023-01-15T16:15:25;0.80;;;0.60;;
73382;SDS011;61600;48.126;11.542;2023-01-15T16:17:54;0.22;;;0.20;;
73382;SDS011;61600;48.126;11.542;2023-01-15T16:20:21;1.30;;;0.60;;
73382;SDS011;61600;48.126;11.542;2023-01-15T16:22:58;0.30;;;0.28;;
73382;SDS011;61600;48.126;11.542;2023-01-15T16:25:31;2.00;;;0.70;;
73382;SDS011;61600;48.126;11.542;2023-01-15T16:28:01;0.60;;;0.28;;
73382;SDS011;61600;48.126;11.542;2023-01-15T16:30:28;1.10;;;0.47;;
73382;SDS011;61600;48.126;11.542;2023-01-15T16:32:59;0.98;;;0.47;;
73382;SDS011;61600;48.126;11.542;2023-01-15T16:35:30;3.47;;;0.50;;
73382;SDS011;61600;48.126;11.542;2023-01-15T16:38:01;0.20;;;0.20;;
73382;SDS011;61600;48.126;11.542;2023-01-15T16:40:30;0.20;;;0.10;;
73382;SDS011;61600;48.126;11.542;2023-01-15T16:45:32;1.45;;;0.38;;
73382;SDS011;61600;48.126;11.542;2023-01-15T16:50:32;0.43;;;0.30;;
73382;SDS011;61600;48.126;11.542;2023-01-15T16:52:59;0.93;;;0.40;;
73382;SDS011;61600;48.126;11.542;2023-01-15T17:00:38;0.47;;;0.30;;
73382;SDS011;61600;48.126;11.542;2023-01-15T17:03:12;1.50;;;0.60;;
73382;SDS011;61600;48.126;11.542;2023-01-15T17:05:49;2.83;;;0.55;;
73382;SDS011;61600;48.126;11.542;2023-01-15T17:08:27;1.58;;;0.50;;
73382;SDS011;61600;48.126;11.542;2023-01-15T17:11:05;0.13;;;0.10;;
73382;SDS011;61600;48.126;11.542;2023-01-15T17:13:44;1.75;;;0.60;;
73382;SDS011;61600;48.126;11.542;2023-01-15T17:18:40;1.33;;;0.60;;
73382;SDS011;61600;48.126;11.542;2023-01-15T17:21:21;0.98;;;0.45;;
73382;SDS011;61600;48.126;11.542;2023-01-15T17:23:55;1.25;;;0.60;;
73382;SDS011;61600;48.126;11.542;2023-01-15T17:26:27;1.63;;;0.68;;
73382;SDS011;61600;48.126;11.542;2023-01-15T17:28:55;0.85;;;0.47;;
73382;SDS011;61600;48.126;11.542;2023-01-15T17:34:02;1.73;;;0.55;;
73382;SDS011;61600;48.126;11.542;2023-01-15T17:38:58;1.50;;;0.60;;
73382;SDS011;61600;48.126;11.542;2023-01-15T17:41:27;1.15;;;0.47;;
73382;SDS011;61600;48.126;11.542;2023-01-15T17:43:54;1.77;;;0.60;;